Time;durP1;ratioP1;P1;durP2;ratioP2;P2;SDS_P1;SDS_P2;PMS_P1;PMS_P2;Temp;Humidity;BMP_temperature;BMP_pressure;BME280_temperature;BME280_humidity;BME280_pressure;Samples;Min_cycle;Max_cycle;Signal;HPM_P1;HPM_P2
2022/11/18 00:01:57;;;;;;;11.32;3.60;;;;;;;5.50;100.00;99502.25;5027191;28;20549;-77
2022/11/18 00:04:22;;;;;;;8.50;3.88;;;;;;;5.23;100.00;99452.06;5027529;28;20025;-78
2022/11/18 00:07:03;;;;;;;11.50;4.03;;;;;;;5.14;100.00;99447.13;5030767;28;20501;-78
2022/11/18 00:09:28;;;;;;;5.78;3.45;;;;;;;5.19;100.00;99458.16;5025993;28;20026;-78
2022/11/18 00:14:40;;;;;;;12.75;4.55;;;;;;;5.48;100.00;99513.50;5017660;28;20123;-77
2022/11/18 00:17:06;;;;;;;12.32;3.97;;;;;;;5.46;100.00;99504.91;5028286;28;20021;-77
2022/11/18 00:19:33;;;;;;;9.27;3.60;;;;;;;5.48;100.00;99514.34;5032562;28;20037;-77
2022/11/18 00:22:17;;;;;;;8.35;4.03;;;;;;;5.31;100.00;99482.88;5031837;28;20060;-78
2022/11/18 00:24:42;;;;;;;12.43;3.40;;;;;;;5.37;100.00;99506.84;5036784;28;20030;-78
2022/11/18 00:27:08;;;;;;;8.40;3.55;;;;;;;5.23;100.00;99487.38;5036930;28;20745;-78
2022/11/18 00:29:33;;;;;;;9.13;3.45;;;;;;;5.36;100.00;99501.69;5037862;28;20049;-78
2022/11/18 00:32:11;;;;;;;12.65;4.00;;;;;;;5.36;100.00;99512.91;5025364;28;20033;-78
2022/11/18 00:34:36;;;;;;;8.75;3.78;;;;;;;5.40;100.00;99518.84;5018278;28;20499;-78
2022/11/18 00:37:02;;;;;;;9.82;3.78;;;;;;;5.39;100.00;99501.63;5030746;28;20031;-78
2022/11/18 00:39:27;;;;;;;11.65;4.85;;;;;;;5.67;100.00;99530.25;5032479;28;20176;-78
2022/11/18 00:45:04;;;;;;;14.00;3.92;;;;;;;5.67;100.00;99530.25;5028134;28;20048;-78
2022/11/18 00:47:29;;;;;;;10.10;3.47;;;;;;;5.50;100.00;99511.72;5036661;28;20031;-78
2022/11/18 00:49:54;;;;;;;12.75;3.97;;;;;;;5.69;100.00;99549.19;5029443;28;20104;-78
2022/11/18 00:52:39;;;;;;;9.35;3.55;;;;;;;5.45;100.00;99505.81;5028697;28;20080;-78
2022/11/18 00:55:06;;;;;;;9.00;3.40;;;;;;;5.60;100.00;99529.56;5032147;28;20029;-78
2022/11/18 00:57:32;;;;;;;7.03;3.95;;;;;;;5.69;100.00;99540.56;5035743;28;20056;-78
2022/11/18 01:00:15;;;;;;;10.57;3.85;;;;;;;5.76;100.00;99555.06;5029817;28;20018;-78
2022/11/18 01:02:40;;;;;;;9.50;3.47;;;;;;;5.72;100.00;99540.47;5036575;28;20029;-78
2022/11/18 01:05:06;;;;;;;8.75;3.35;;;;;;;5.82;100.00;99565.22;5028132;28;20032;-78
2022/11/18 01:07:31;;;;;;;11.25;3.75;;;;;;;5.59;100.00;99527.00;5035614;28;20388;-78
2022/11/18 01:09:57;;;;;;;8.40;3.78;;;;;;;5.86;100.00;99569.47;5035775;28;20435;-78
2022/11/18 01:15:30;;;;;;;7.05;3.75;;;;;;;5.94;100.00;99575.31;5037473;28;20107;-78
2022/11/18 01:17:55;;;;;;;10.85;3.72;;;;;;;5.81;100.00;99551.44;5033732;28;20026;-78
2022/11/18 01:20:20;;;;;;;12.63;3.85;;;;;;;6.00;100.00;99574.31;5031410;28;20025;-78
2022/11/18 01:22:46;;;;;;;11.38;3.85;;;;;;;5.83;100.00;99546.25;5035891;28;20116;-78
2022/11/18 01:25:27;;;;;;;7.97;4.38;;;;;;;5.84;100.00;99545.34;5031469;28;21797;-78
2022/11/18 01:27:53;;;;;;;11.18;3.50;;;;;;;5.92;100.00;99551.22;5026108;28;20053;-78
2022/11/18 01:30:18;;;;;;;11.70;4.03;;;;;;;5.99;100.00;99570.88;5029692;28;20033;-78
2022/11/18 01:35:28;;;;;;;;;;;;;;;6.19;100.00;99600.59;5034147;28;20083;-78
2022/11/18 01:37:53;;;;;;;9.13;3.30;;;;;;;6.16;100.00;99579.97;5020413;28;19913;-78
2022/11/18 01:40:18;;;;;;;10.73;3.20;;;;;;;6.21;100.00;99602.25;5033898;28;20041;-77
2022/11/18 01:43:14;;;;;;;7.75;3.65;;;;;;;6.26;100.00;99604.72;5027055;28;20208;-78
2022/11/18 01:45:57;;;;;;;6.35;3.40;;;;;;;6.26;100.00;99607.31;5027016;28;20056;-78
2022/11/18 01:48:27;;;;;;;8.10;3.38;;;;;;;6.08;100.00;99587.91;5018393;28;20017;-77
2022/11/18 01:51:15;;;;;;;6.88;3.80;;;;;;;6.16;100.00;99600.66;5033832;28;20079;-78
2022/11/18 01:53:46;;;;;;;10.48;3.80;;;;;;;6.23;100.00;99616.00;5026053;28;20089;-78
2022/11/18 01:56:42;;;;;;;11.35;3.45;;;;;;;6.09;100.00;99597.38;5025360;28;20025;-78
2022/11/18 01:59:34;;;;;;;8.07;3.78;;;;;;;6.23;100.00;99613.41;5019728;28;20560;-78
2022/11/18 02:02:17;;;;;;;9.18;3.85;;;;;;;6.27;100.00;99620.19;5029538;28;20037;-78
2022/11/18 02:04:47;;;;;;;11.75;3.92;;;;;;;6.30;100.00;99614.09;5025887;28;20393;-78
2022/11/18 02:07:31;;;;;;;7.07;3.65;;;;;;;6.37;100.00;99619.97;5023775;28;20080;-78
2022/11/18 02:10:01;;;;;;;9.32;3.72;;;;;;;6.18;100.00;99591.97;5027544;28;20029;-78
2022/11/18 02:12:44;;;;;;;13.55;4.47;;;;;;;6.28;100.00;99605.53;5026963;28;20115;-78
2022/11/18 02:15:10;;;;;;;10.48;4.00;;;;;;;6.22;100.00;99591.00;5014086;28;20033;-78
2022/11/18 02:18:08;;;;;;;11.18;3.80;;;;;;;6.50;100.00;99636.88;5032485;28;20029;-78
2022/11/18 02:21:28;;;;;;;8.13;3.72;;;;;;;6.33;100.00;99609.69;5051989;23;20049;-78
2022/11/18 02:24:42;;;;;;;6.60;3.35;;;;;;;6.52;100.00;99632.53;4943898;29;20511;-78
2022/11/18 02:27:50;;;;;;;10.75;3.50;;;;;;;6.60;100.00;99640.94;4976772;28;20036;-78
2022/11/18 02:30:17;;;;;;;7.45;3.50;;;;;;;6.63;100.00;99642.59;5046767;28;20420;-78
2022/11/18 02:33:10;;;;;;;10.43;3.28;;;;;;;6.64;100.00;99649.47;5052730;28;20054;-78
2022/11/18 02:35:38;;;;;;;7.45;3.50;;;;;;;6.64;100.00;99639.97;5047866;28;20476;-78
2022/11/18 02:38:11;;;;;;;7.53;3.38;;;;;;;6.67;100.00;99655.44;5053856;28;20028;-78
2022/11/18 02:41:04;;;;;;;12.02;3.90;;;;;;;6.40;100.00;99604.34;5043007;28;20488;-78
2022/11/18 02:44:28;;;;;;;7.25;3.65;;;;;;;6.50;100.00;99623.94;5034324;28;20115;-78
2022/11/18 02:47:13;;;;;;;8.63;3.83;;;;;;;6.46;100.00;99611.97;5028681;28;20117;-78
2022/11/18 02:49:59;;;;;;;11.25;3.53;;;;;;;6.62;100.00;99643.50;5051657;28;20017;-78
2022/11/18 02:52:26;;;;;;;12.77;4.10;;;;;;;6.75;100.00;99668.19;5044243;28;20476;-78
2022/11/18 02:54:53;;;;;;;9.38;3.50;;;;;;;6.71;100.00;99662.22;5049704;28;20400;-78
2022/11/18 02:57:35;;;;;;;8.20;3.67;;;;;;;6.53;100.00;99634.22;5053614;28;20028;-78
2022/11/18 03:00:00;;;;;;;11.07;3.90;;;;;;;6.73;100.00;99665.59;5046595;28;20104;-78
2022/11/18 03:02:25;;;;;;;10.43;3.92;;;;;;;6.62;100.00;99646.91;5041301;28;20536;-78
2022/11/18 03:05:16;;;;;;;8.63;3.80;;;;;;;6.78;100.00;99668.94;5054056;23;20057;-78
2022/11/18 03:07:47;;;;;;;8.02;3.83;;;;;;;6.79;100.00;99677.56;5052492;28;20585;-78
2022/11/18 03:10:29;;;;;;;10.45;3.78;;;;;;;6.66;100.00;99650.28;5050651;28;20128;-78
2022/11/18 03:13:07;;;;;;;8.65;3.95;;;;;;;6.79;100.00;99686.16;5044126;28;20384;-78
2022/11/18 03:15:58;;;;;;;13.65;4.15;;;;;;;6.77;100.00;99687.97;5049212;28;20033;-78
2022/11/18 03:18:48;;;;;;;10.32;4.43;;;;;;;6.79;100.00;99691.34;5047854;28;20035;-78
2022/11/18 03:21:38;;;;;;;7.18;3.60;;;;;;;6.65;100.00;99667.56;5048154;28;20029;-78
2022/11/18 03:24:32;;;;;;;10.73;3.78;;;;;;;6.83;100.00;99699.03;5040030;28;21698;-78
2022/11/18 03:27:29;;;;;;;8.52;3.78;;;;;;;6.63;100.00;99668.50;5025337;28;20095;-78
2022/11/18 03:30:23;;;;;;;12.63;3.80;;;;;;;6.72;100.00;99682.03;5046808;28;20059;-78
2022/11/18 03:33:20;;;;;;;8.60;3.85;;;;;;;6.70;100.00;99681.25;5048250;28;20354;-78
2022/11/18 03:35:48;;;;;;;10.80;3.63;;;;;;;6.84;100.00;99703.34;5051035;28;20032;-78
2022/11/18 03:38:35;;;;;;;8.30;3.80;;;;;;;6.85;100.00;99707.63;5037586;28;20389;-78
2022/11/18 03:41:05;;;;;;;10.02;4.00;;;;;;;6.66;100.00;99689.97;5047687;28;20035;-78
2022/11/18 03:43:36;;;;;;;10.95;4.13;;;;;;;6.79;100.00;99708.63;5050649;28;20029;-78
2022/11/18 03:46:12;;;;;;;9.30;4.18;;;;;;;6.66;100.00;99697.75;5051025;28;20107;-78
2022/11/18 03:49:05;;;;;;;10.30;3.97;;;;;;;6.69;100.00;99705.44;5047837;28;20119;-78
2022/11/18 03:51:55;;;;;;;12.27;4.00;;;;;;;6.76;100.00;99721.66;5037320;28;20013;-78
2022/11/18 03:57:29;;;;;;;12.10;4.10;;;;;;;6.64;100.00;99715.09;5048269;28;20454;-78
2022/11/18 04:00:10;;;;;;;7.97;4.03;;;;;;;6.76;100.00;99740.66;5051243;28;20025;-78
2022/11/18 04:02:36;;;;;;;9.13;3.83;;;;;;;6.58;100.00;99720.41;5051473;28;20024;-78
2022/11/18 04:05:18;;;;;;;9.85;4.40;;;;;;;6.62;100.00;99737.56;5047227;28;20052;-78
2022/11/18 04:07:58;;;;;;;12.82;4.50;;;;;;;6.46;100.00;99723.28;5051723;28;20079;-78
2022/11/18 04:10:44;;;;;;;16.40;4.50;;;;;;;6.48;100.00;99743.09;4998678;28;20059;-78
2022/11/18 04:13:33;;;;;;;10.43;4.55;;;;;;;6.32;100.00;99740.00;5049983;28;20032;-78
2022/11/18 04:15:59;;;;;;;10.68;4.18;;;;;;;6.28;100.00;99750.50;5041570;28;20016;-78
2022/11/18 04:18:25;;;;;;;13.07;4.25;;;;;;;6.38;100.00;99771.84;5050934;28;20384;-78
2022/11/18 04:20:50;;;;;;;14.07;4.82;;;;;;;6.16;100.00;99736.06;5051567;28;20113;-78
2022/11/18 04:23:31;;;;;;;12.20;4.72;;;;;;;6.02;100.00;99738.13;5051551;28;20013;-78
2022/11/18 04:25:56;;;;;;;9.48;4.30;;;;;;;6.19;100.00;99771.41;5043660;28;20013;-78
2022/11/18 04:28:21;;;;;;;9.75;4.50;;;;;;;5.99;100.00;99754.56;5040572;28;20029;-78
2022/11/18 04:31:03;;;;;;;10.00;4.13;;;;;;;6.02;100.00;99780.38;5050953;28;20503;-78
2022/11/18 04:33:28;;;;;;;15.38;4.90;;;;;;;5.70;100.00;99743.97;5049529;28;20052;-78
2022/11/18 04:35:53;;;;;;;8.75;4.55;;;;;;;5.75;100.00;99760.22;5038885;28;20030;-78
2022/11/18 04:38:19;;;;;;;11.43;4.72;;;;;;;5.70;100.00;99773.25;5050360;28;20032;-78
2022/11/18 04:41:03;;;;;;;12.70;5.38;;;;;;;5.78;100.00;99789.47;5050020;28;20052;-78
2022/11/18 04:43:28;;;;;;;10.10;4.85;;;;;;;5.51;100.00;99762.44;5038650;28;20752;-78
2022/11/18 04:45:54;;;;;;;12.07;5.47;;;;;;;5.51;100.00;99766.75;5049759;28;20116;-78
2022/11/18 04:48:19;;;;;;;15.70;5.25;;;;;;;5.47;100.00;99770.28;5036476;28;20033;-78
2022/11/18 04:51:03;;;;;;;16.48;5.80;;;;;;;5.47;100.00;99784.06;5048946;28;20032;-78
2022/11/18 04:53:29;;;;;;;10.23;5.55;;;;;;;5.36;100.00;99762.72;5051094;28;20577;-78
2022/11/18 04:55:54;;;;;;;13.98;5.85;;;;;;;5.34;100.00;99764.50;5049751;28;20037;-78
2022/11/18 04:58:19;;;;;;;19.63;6.30;;;;;;;5.32;100.00;99761.94;5051373;28;20108;-79
2022/11/18 05:00:45;;;;;;;13.45;5.95;;;;;;;5.55;100.00;99815.78;5049889;28;20037;-78
2022/11/18 05:03:22;;;;;;;14.30;6.35;;;;;;;5.32;100.00;99784.34;5045837;28;20033;-78
2022/11/18 05:05:47;;;;;;;17.05;6.82;;;;;;;5.49;100.00;99817.63;5052778;28;20119;-79
2022/11/18 05:08:31;;;;;;;12.63;6.40;;;;;;;5.50;100.00;99824.53;5045378;28;20117;-78
2022/11/18 05:12:47;;;;;;;17.15;6.57;;;;;;;5.26;100.00;99782.72;5053743;28;20059;-78
2022/11/18 05:13:49;;;;;;;20.20;6.63;;;;;;;5.48;100.00;99823.69;5062865;23;20058;-78
2022/11/18 05:16:14;;;;;;;14.75;6.63;;;;;;;5.47;100.00;99827.16;5046413;28;20025;-78
2022/11/18 05:18:39;;;;;;;13.52;6.50;;;;;;;5.25;100.00;99795.69;5048496;28;20021;-78
2022/11/18 05:21:24;;;;;;;15.80;7.35;;;;;;;5.25;100.00;99799.13;5043479;28;20039;-78
2022/11/18 05:23:50;;;;;;;20.83;6.70;;;;;;;5.43;100.00;99830.66;5049236;28;20036;-78
2022/11/18 05:26:15;;;;;;;17.38;6.25;;;;;;;5.35;100.00;99820.47;5043458;28;20034;-78
2022/11/18 05:28:52;;;;;;;17.40;7.32;;;;;;;5.42;100.00;99840.16;5037078;28;20163;-78
2022/11/18 05:31:18;;;;;;;14.77;6.53;;;;;;;5.43;100.00;99838.41;5049231;28;20026;-78
2022/11/18 05:34:01;;;;;;;14.20;7.03;;;;;;;5.37;100.00;99835.09;5041662;28;20033;-78
2022/11/18 05:36:27;;;;;;;13.90;6.82;;;;;;;5.38;100.00;99841.94;5045666;28;20022;-78
2022/11/18 05:38:52;;;;;;;15.15;6.85;;;;;;;5.21;100.00;99820.75;5042986;28;20338;-78
2022/11/18 05:44:02;;;;;;;16.33;6.85;;;;;;;5.14;100.00;99811.41;5053388;28;20439;-78
2022/11/18 05:49:14;;;;;;;17.63;7.28;;;;;;;5.12;100.00;99818.31;5047710;28;20044;-78
2022/11/18 05:51:39;;;;;;;14.80;7.72;;;;;;;5.29;100.00;99860.19;5046898;28;20026;-78
2022/11/18 05:54:22;;;;;;;13.35;7.10;;;;;;;5.28;100.00;99868.00;5042313;28;20028;-78
2022/11/18 05:56:47;;;;;;;18.67;7.63;;;;;;;5.11;100.00;99845.88;5044421;28;20021;-78
2022/11/18 05:59:13;;;;;;;20.67;7.57;;;;;;;5.20;100.00;99868.13;5042141;28;20403;-78
2022/11/18 06:01:59;;;;;;;17.83;7.45;;;;;;;5.07;100.00;99848.56;5044816;28;20047;-78
2022/11/18 06:04:52;;;;;;;14.65;7.10;;;;;;;5.24;100.00;99881.84;5053498;28;20025;-78
2022/11/18 06:07:38;;;;;;;16.17;6.63;;;;;;;4.98;100.00;99859.88;5047043;28;20524;-78
2022/11/18 06:10:05;;;;;;;15.35;7.13;;;;;;;5.18;100.00;99889.72;5049411;28;20543;-78
2022/11/18 06:12:51;;;;;;;16.00;6.88;;;;;;;5.15;100.00;99888.03;5041954;28;20047;-78
2022/11/18 06:15:24;;;;;;;16.90;7.00;;;;;;;5.02;100.00;99874.44;5044764;28;20039;-78
2022/11/18 06:18:10;;;;;;;19.27;7.97;;;;;;;5.07;100.00;99883.00;5046254;28;20018;-78
2022/11/18 06:20:38;;;;;;;14.23;7.10;;;;;;;5.09;100.00;99894.13;5045769;28;20029;-78
2022/11/18 06:23:22;;;;;;;19.33;7.80;;;;;;;4.90;100.00;99872.94;5053476;28;20108;-78
2022/11/18 06:25:48;;;;;;;16.70;8.32;;;;;;;4.97;100.00;99888.31;5041237;28;20026;-78
2022/11/18 06:28:30;;;;;;;16.88;7.80;;;;;;;5.13;100.00;99915.59;5044244;28;20029;-78
2022/11/18 06:30:56;;;;;;;16.50;7.78;;;;;;;4.88;100.00;99890.16;5043342;28;20063;-78
2022/11/18 06:33:21;;;;;;;14.75;8.02;;;;;;;4.97;100.00;99901.22;5040654;28;20053;-78
2022/11/18 06:35:46;;;;;;;16.27;8.10;;;;;;;4.89;100.00;99899.63;5048301;28;20029;-78
2022/11/18 06:38:12;;;;;;;17.52;8.23;;;;;;;4.84;100.00;99906.59;5045721;28;20095;-78
2022/11/18 06:40:43;;;;;;;19.25;8.50;;;;;;;4.68;100.00;99882.72;5037724;28;20472;-78
2022/11/18 06:49:02;;;;;;;25.02;8.90;;;;;;;5.05;100.00;99946.72;5042632;28;20083;-78
2022/11/18 06:51:34;;;;;;;18.77;8.27;;;;;;;5.06;100.00;99952.75;5046737;28;20027;-78
2022/11/18 06:53:59;;;;;;;17.85;8.38;;;;;;;5.08;100.00;99951.00;5041555;28;20392;-78
2022/11/18 06:56:40;;;;;;;22.10;9.40;;;;;;;5.06;100.00;99937.25;5048397;28;20107;-78
2022/11/18 06:59:05;;;;;;;22.08;9.27;;;;;;;5.09;100.00;99940.63;5052749;28;20033;-78
2022/11/18 07:01:51;;;;;;;16.77;9.20;;;;;;;5.20;100.00;99949.94;5040837;28;20112;-78
2022/11/18 07:04:17;;;;;;;21.80;8.52;;;;;;;4.90;100.00;99915.97;5045207;28;20135;-78
2022/11/18 07:06:45;;;;;;;17.73;7.97;;;;;;;5.11;100.00;99974.22;5045881;28;20086;-78
2022/11/18 07:09:32;;;;;;;13.75;7.60;;;;;;;5.06;100.00;99976.00;5045462;28;20025;-78
2022/11/18 07:12:09;;;;;;;17.02;7.40;;;;;;;4.85;100.00;99944.44;5036207;28;20488;-78
2022/11/18 07:14:47;;;;;;;16.25;7.68;;;;;;;4.82;100.00;99941.06;5047032;28;20044;-78
2022/11/18 07:17:18;;;;;;;16.60;7.72;;;;;;;4.71;100.00;99938.63;5037070;28;20032;-78
2022/11/18 07:20:02;;;;;;;19.65;8.20;;;;;;;4.61;100.00;99927.59;5047686;28;20459;-78
2022/11/18 07:22:36;;;;;;;22.13;8.32;;;;;;;4.85;100.00;99978.03;5039401;28;20029;-78
2022/11/18 07:25:02;;;;;;;18.50;8.18;;;;;;;4.72;100.00;99960.16;5039675;28;20044;-78
2022/11/18 07:27:27;;;;;;;15.98;7.93;;;;;;;4.91;100.00;100002.91;5034927;28;20025;-78
2022/11/18 07:30:08;;;;;;;16.08;8.38;;;;;;;4.75;100.00;99968.69;5050009;28;20024;-78
2022/11/18 07:32:34;;;;;;;17.75;8.48;;;;;;;4.84;100.00;99990.94;5050949;28;20029;-78
2022/11/18 07:34:59;;;;;;;19.45;8.60;;;;;;;4.79;100.00;99988.44;5045583;28;20037;-78
2022/11/18 07:37:25;;;;;;;16.48;8.43;;;;;;;4.78;100.00;99989.31;5050137;28;20120;-78
2022/11/18 07:40:03;;;;;;;22.70;8.82;;;;;;;4.74;100.00;99982.50;5039393;28;20492;-78
2022/11/18 07:42:41;;;;;;;21.45;8.68;;;;;;;4.93;100.00;100021.81;5045943;28;20111;-78
2022/11/18 07:45:18;;;;;;;21.52;8.75;;;;;;;4.64;100.00;99970.56;5046762;28;20033;-78
2022/11/18 07:47:56;;;;;;;19.98;9.05;;;;;;;4.59;100.00;99964.59;5051751;28;20024;-79
2022/11/18 07:50:36;;;;;;;16.73;9.38;;;;;;;4.71;100.00;99990.28;5040631;28;20528;-79
2022/11/18 07:53:01;;;;;;;15.65;8.43;;;;;;;4.91;100.00;100024.44;5035960;28;20068;-79
2022/11/18 07:55:26;;;;;;;17.35;8.27;;;;;;;4.76;100.00;100008.28;5042577;28;20083;-79
2022/11/18 07:58:01;;;;;;;20.77;9.57;;;;;;;4.86;100.00;100020.19;5051099;28;20465;-78
2022/11/18 08:00:34;;;;;;;17.45;9.18;;;;;;;5.01;100.00;100035.50;5034234;28;20021;-79
2022/11/18 08:03:17;;;;;;;17.60;9.70;;;;;;;4.89;100.00;100015.84;5039563;28;20021;-78
2022/11/18 08:05:42;;;;;;;22.48;9.50;;;;;;;4.92;100.00;100020.97;5048256;28;20111;-78
2022/11/18 08:08:07;;;;;;;21.60;10.32;;;;;;;5.10;100.00;100045.72;5045927;28;20107;-79
2022/11/18 08:10:33;;;;;;;19.70;10.82;;;;;;;5.03;100.00;100035.47;5032398;28;20043;-79
2022/11/18 08:13:24;;;;;;;25.77;11.88;;;;;;;5.18;100.00;100058.50;5032456;28;20045;-79
2022/11/18 08:16:02;;;;;;;23.35;11.60;;;;;;;5.10;100.00;100039.66;5039234;28;20450;-79
2022/11/18 08:18:29;;;;;;;23.65;10.85;;;;;;;5.27;100.00;100066.13;5045419;28;20017;-73
2022/11/18 08:20:54;;;;;;;20.20;11.43;;;;;;;5.20;100.00;100056.78;5036174;28;20024;-77
2022/11/18 08:23:23;;;;;;;23.05;11.15;;;;;;;5.11;100.00;100051.72;5047734;28;20435;-78
2022/11/18 08:25:48;;;;;;;24.85;11.68;;;;;;;5.22;100.00;100072.25;5033102;28;20029;-78
2022/11/18 08:28:28;;;;;;;22.23;11.55;;;;;;;5.04;100.00;100050.09;5039914;28;20028;-78
2022/11/18 08:30:54;;;;;;;25.63;11.45;;;;;;;4.95;100.00;100043.31;5036888;28;20037;-78
2022/11/18 08:33:26;;;;;;;25.52;11.43;;;;;;;5.03;100.00;100049.22;5034579;28;20393;-78
2022/11/18 08:35:51;;;;;;;27.38;11.77;;;;;;;5.13;100.00;100065.47;5036731;28;20037;-78
2022/11/18 08:38:21;;;;;;;21.23;12.32;;;;;;;5.29;100.00;100084.19;5032989;28;20032;-78
2022/11/18 08:40:47;;;;;;;25.10;12.23;;;;;;;5.22;100.00;100056.72;5037365;28;20432;-78
2022/11/18 08:43:12;;;;;;;27.35;12.32;;;;;;;5.40;100.00;100083.19;5035790;28;20026;-78
2022/11/18 08:45:50;;;;;;;22.52;12.48;;;;;;;5.36;100.00;100066.00;5035981;28;20484;-78
2022/11/18 08:48:15;;;;;;;25.40;12.52;;;;;;;5.31;100.00;100049.72;5048965;28;20033;-78
2022/11/18 08:50:46;;;;;;;26.23;12.82;;;;;;;5.40;100.00;100052.16;5046868;28;20394;-78
2022/11/18 08:53:29;;;;;;;28.75;13.10;;;;;;;5.53;100.00;100062.31;5037549;28;20029;-78
2022/11/18 08:55:59;;;;;;;25.57;13.67;;;;;;;5.72;100.00;100061.16;5036263;28;20465;-77
2022/11/18 08:58:25;;;;;;;29.95;13.45;;;;;;;5.93;100.00;100072.91;5049361;28;20036;-76
2022/11/18 09:00:51;;;;;;;28.70;14.38;;;;;;;6.04;100.00;100077.91;5046201;28;20399;-78
2022/11/18 09:03:26;;;;;;;26.83;12.77;;;;;;;5.86;100.00;100033.31;5035348;28;20037;-77
2022/11/18 09:05:52;;;;;;;27.05;13.63;;;;;;;6.19;100.00;100087.13;5035918;28;20091;-77
2022/11/18 09:08:18;;;;;;;28.27;12.77;;;;;;;6.24;100.00;100098.25;5039818;28;20427;-77
2022/11/18 09:10:44;;;;;;;23.25;12.00;;;;;;;6.27;100.00;100088.69;5024912;28;20039;-77
2022/11/18 09:13:09;;;;;;;26.95;11.60;;;;;;;6.33;100.00;100098.94;5048266;28;20385;-77
2022/11/18 09:15:34;;;;;;;23.55;10.43;;;;;;;6.33;100.00;100096.34;5049048;28;20033;-77
2022/11/18 09:18:00;;;;;;;24.77;10.43;;;;;;;6.34;100.00;100086.84;5044187;28;20456;-77
2022/11/18 09:20:26;;;;;;;19.60;10.15;;;;;;;6.45;100.00;100102.22;5045885;28;20021;-77
2022/11/18 09:22:52;;;;;;;19.60;10.07;;;;;;;6.47;100.00;100090.06;5034697;28;20029;-79
2022/11/18 09:25:17;;;;;;;22.95;10.18;;;;;;;6.47;100.00;100111.63;5039153;28;20034;-79
2022/11/18 09:27:51;;;;;;;18.80;9.23;;;;;;;6.52;100.00;100114.16;5034759;28;20025;-79
2022/11/18 09:30:16;;;;;;;18.42;10.07;;;;;;;6.40;100.00;100084.16;5037348;28;20045;-79
2022/11/18 09:32:42;;;;;;;18.40;9.80;;;;;;;6.50;100.00;100100.38;5050762;28;20083;-80
2022/11/18 09:35:22;;;;;;;18.27;9.25;;;;;;;6.52;100.00;100107.22;5046989;28;20068;-78
2022/11/18 09:37:47;;;;;;;18.40;8.65;;;;;;;6.53;100.00;100106.34;5049250;28;20087;-79
2022/11/18 09:40:16;;;;;;;20.52;9.10;;;;;;;6.58;100.00;100111.47;5040031;28;20021;-79
2022/11/18 09:43:01;;;;;;;17.95;8.65;;;;;;;6.77;100.00;100138.72;5042187;28;20076;-79
2022/11/18 09:45:36;;;;;;;20.52;8.07;;;;;;;6.72;100.00;100135.34;5041996;28;20048;-78
2022/11/18 09:49:11;;;;;;;15.38;8.07;;;;;;;6.88;100.00;100151.47;5044605;28;20028;-78
2022/11/18 09:51:08;;;;;;;14.68;8.07;;;;;;;7.03;100.00;100145.13;5038438;28;20030;-78
2022/11/18 09:53:34;;;;;;;13.82;7.93;;;;;;;7.07;100.00;100136.41;5035802;28;20039;-78
2022/11/18 09:56:01;;;;;;;18.88;7.90;;;;;;;7.20;100.00;100137.88;5044589;28;20029;-78
2022/11/18 09:58:33;;;;;;;13.23;6.65;;;;;;;7.37;100.00;100149.63;5042477;28;20111;-78
2022/11/18 10:01:16;;;;;;;13.05;6.57;;;;;;;7.55;100.00;100153.53;5043080;28;20147;-78
2022/11/18 10:03:41;;;;;;;13.95;6.72;;;;;;;7.74;100.00;100181.63;5042441;28;20013;-78
2022/11/18 10:06:24;;;;;;;15.77;6.65;;;;;;;7.80;100.00;100151.25;5042520;28;20107;-78
2022/11/18 10:09:01;;;;;;;14.32;5.65;;;;;;;8.10;100.00;100178.22;5038212;28;20029;-76
2022/11/18 10:12:03;;;;;;;12.65;5.32;;;;;;;8.26;100.00;100183.91;5047703;28;20083;-76
2022/11/18 10:14:41;;;;;;;14.10;4.63;;;;;;;8.40;100.00;100179.25;5035571;28;20033;-76
2022/11/18 10:17:38;;;;;;;10.25;5.18;;;;;;;8.50;100.00;100167.75;5044189;28;20021;-76
2022/11/18 10:20:03;;;;;;;13.27;4.95;;;;;;;8.65;100.00;100177.72;5039334;28;20087;-76
2022/11/18 10:22:48;;;;;;;10.93;4.03;;;;;;;8.67;100.00;100162.13;5034444;28;20520;-76
2022/11/18 10:25:16;;;;;;;10.30;4.88;;;;;;;8.77;100.00;100186.13;5034145;28;20782;-76
2022/11/18 10:27:44;;;;;;;16.88;5.32;;;;;;;8.65;100.00;100185.53;5051004;28;20025;-76
2022/11/18 10:30:14;;;;;;;8.32;4.10;;;;;;;8.61;100.00;100189.09;5039933;28;20017;-76
2022/11/18 10:33:01;;;;;;;11.60;4.43;;;;;;;8.42;100.00;100156.69;5050932;28;20059;-75
2022/11/18 10:35:44;;;;;;;13.60;3.45;;;;;;;8.65;100.00;100187.28;5034022;28;20037;-76
2022/11/18 10:38:11;;;;;;;9.50;3.55;;;;;;;8.78;100.00;100199.06;5033753;28;20021;-76
2022/11/18 10:40:55;;;;;;;9.20;3.67;;;;;;;8.75;100.00;100178.34;5033219;28;20477;-76
2022/11/18 10:43:42;;;;;;;8.15;3.85;;;;;;;8.97;100.00;100206.38;5034088;28;20025;-75
2022/11/18 10:46:27;;;;;;;7.45;2.83;;;;;;;8.87;100.00;100187.56;5036897;28;20038;-76
2022/11/18 10:49:07;;;;;;;7.13;3.20;;;;;;;8.85;100.00;100195.41;5043927;28;20029;-76
2022/11/18 10:51:33;;;;;;;9.93;3.30;;;;;;;8.88;100.00;100205.72;5037973;28;20116;-76
2022/11/18 10:54:17;;;;;;;8.13;3.40;;;;;;;8.90;100.00;100216.09;5038156;28;20029;-75
2022/11/18 10:56:47;;;;;;;;;;;;;;;8.96;100.00;100210.72;5040359;28;20052;-76
2022/11/18 10:59:27;;;;;;;7.70;3.50;;;;;;;8.97;100.00;100207.22;5049525;28;20002;-75
2022/11/18 11:02:03;;;;;;;10.38;3.67;;;;;;;8.93;100.00;100195.22;5034963;28;20021;-76
2022/11/18 11:04:29;;;;;;;12.75;3.60;;;;;;;8.94;100.00;100196.06;5033360;28;20022;-75
2022/11/18 11:06:58;;;;;;;10.23;4.00;;;;;;;9.17;100.00;100211.03;5042366;28;20381;-77
2022/11/18 11:09:30;;;;;;;9.63;3.58;;;;;;;9.21;100.00;100213.50;5033527;28;20040;-78
2022/11/18 11:12:16;;;;;;;12.95;3.72;;;;;;;9.37;100.00;100221.72;5036233;28;20120;-80
2022/11/18 11:14:52;;;;;;;9.77;3.70;;;;;;;9.37;100.00;100213.91;5038885;28;20030;-77
2022/11/18 11:17:37;;;;;;;11.95;4.15;;;;;;;9.44;100.00;100225.84;5046176;28;20033;-78
2022/11/18 11:20:22;;;;;;;9.88;3.80;;;;;;;9.34;100.00;100201.00;5033512;28;20029;-78
2022/11/18 11:22:47;;;;;;;7.45;3.25;;;;;;;9.38;100.00;100203.50;5048881;28;20029;-77
2022/11/18 11:25:29;;;;;;;11.70;3.80;;;;;;;9.49;100.00;100210.97;5051392;28;20023;-77
2022/11/18 11:28:07;;;;;;;7.88;3.78;;;;;;;9.52;100.00;100197.88;5037525;28;20029;-77
2022/11/18 11:31:21;;;;;;;12.32;3.45;;;;;;;9.71;100.00;100221.63;5035687;28;20491;-77
2022/11/18 11:34:13;;;;;;;6.80;3.90;;;;;;;9.71;100.00;100223.34;4963822;28;20121;-77
2022/11/18 11:37:23;;;;;;;9.40;4.18;;;;;;;9.47;100.00;100210.16;5039280;28;20156;-75
2022/11/18 11:40:06;;;;;;;8.85;3.90;;;;;;;9.37;100.00;100224.31;5033020;28;20037;-75
2022/11/18 11:43:02;;;;;;;9.18;4.43;;;;;;;9.25;100.00;100211.66;5032348;28;20018;-75
2022/11/18 11:45:53;;;;;;;13.68;4.57;;;;;;;9.25;100.00;100211.66;5033201;28;20083;-75
2022/11/18 11:48:40;;;;;;;10.35;3.75;;;;;;;9.18;100.00;100195.38;5051814;28;20032;-77
2022/11/18 11:51:26;;;;;;;8.65;3.70;;;;;;;9.44;100.00;100233.66;5047596;28;20033;-78
2022/11/18 11:54:30;;;;;;;10.20;4.40;;;;;;;9.48;100.00;100239.63;5041705;28;20104;-77
2022/11/18 11:57:04;;;;;;;14.65;4.03;;;;;;;9.49;100.00;100238.75;5051543;28;20112;-77
2022/11/18 11:59:58;;;;;;;7.72;3.70;;;;;;;9.57;100.00;100245.41;5039608;28;20164;-77
2022/11/18 12:02:43;;;;;;;9.43;4.35;;;;;;;9.55;100.00;100228.16;5032701;28;20026;-76
2022/11/18 12:05:34;;;;;;;8.63;4.03;;;;;;;9.57;100.00;100224.59;5044985;28;20059;-77
2022/11/18 12:08:02;;;;;;;5.97;3.83;;;;;;;9.81;100.00;100241.25;5043743;28;20082;-77
2022/11/18 12:10:52;;;;;;;8.88;4.20;;;;;;;10.11;100.00;100238.63;5043757;28;20044;-77
2022/11/18 12:13:46;;;;;;;8.85;4.28;;;;;;;10.45;100.00;100233.22;5031690;28;20051;-77
2022/11/18 12:16:24;;;;;;;10.23;4.53;;;;;;;10.73;100.00;100222.72;5032359;28;20084;-77
2022/11/18 12:18:58;;;;;;;8.13;3.80;;;;;;;11.04;100.00;100223.41;5046888;28;20033;-77
2022/11/18 12:21:42;;;;;;;;;;;;;;;11.16;100.00;100233.44;5038408;28;20462;-77
2022/11/18 12:24:17;;;;;;;10.15;3.70;;;;;;;10.93;100.00;100239.44;5040750;28;19949;-79
2022/11/18 12:26:44;;;;;;;10.32;4.18;;;;;;;10.82;100.00;100241.56;5042827;28;20032;-75
2022/11/18 12:29:19;;;;;;;8.35;3.83;;;;;;;10.76;100.00;100237.44;5047646;28;20025;-74